KMGY/MGY METAR and TAF weather

Enter ICAO airport designator
Station Type Date Time Source
KMGY METAR 2020/06/06 01:53 UTC NOAA

KMGY 060153Z AUTO 26003KT 10SM CLR 27/17 A2992 RMK AO2 SLP121 T02720172


Station Type Date Time Source
KMGY Decoded METAR 2020/06/06 01:53 UTC NOAA

DAYTON WRIGHT BROTHERS AIRPORT , OH, United States (KMGY) 39-36N 84-14W 289M
Jun 05, 2020 - 09:53 PM EDT / 2020.06.06 0153 UTC
Wind: from the W (260 degrees) at 3 MPH (3 KT):0
Visibility: 10 mile(s):0
Sky conditions: clear
Temperature: 81.0 F (27.2 C)
Dew Point: 63.0 F (17.2 C)
Relative Humidity: 54%
Pressure (altimeter): 29.92 in. Hg (1013 hPa)
ob: KMGY 060153Z AUTO 26003KT 10SM CLR 27/17 A2992 RMK AO2 SLP121 T02720172
cycle: 2

Station Type Date Time Source
KMGY TAF UTC NOAA

Error!

Example: see airport list